Terminal Aerodrome Forecast
Issued by NWS

Home | Current Version | Previous Version | Text Only | Print | Product List | Glossary On
Versions: 1 2 3 4 5 6 7 8 9 10 11 12 13 14 15 16 17 18 19 20 21 22 23 24 25 26 27 28 29 30 31
015
FTUS41 KOKX 261752
TAFGON
TAF
KGON 261752Z 2618/2718 24012KT P6SM FEW040 FEW250
     FM262200 28008KT P6SM FEW250
     FM270100 32003KT P6SM FEW250
     FM270600 36003KT P6SM FEW250
     FM271400 21007KT P6SM FEW200=

USA.gov is the U.S. government's official web portal to all federal, state and local government web resources and services.